Terminal Aerodrome Forecast
Issued by NWS

Home | Current Version | Previous Version | Text Only | Print | Product List | Glossary On
Versions: 1 2 3 4 5 6 7 8 9 10 11 12 13 14 15 16 17 18 19 20 21 22 23 24
000
FTUS45 KGJT 030540
TAFVEL
TAF
KVEL 030540Z 0306/0406 25005KT P6SM -SHRA FEW045 BKN060 OVC080
     FM031200 VRB03KT P6SM VCSH SCT060 OVC090
     FM031800 24010G17KT P6SM -SHRA VCTS SCT060CB OVC080
     FM040200 29005KT P6SM SCT100=

USA.gov is the U.S. government's official web portal to all federal, state and local government web resources and services.